createdAt,value
2018-07-30T00:02:19.237Z,10.73
2018-07-30T00:04:47.500Z,11.63
2018-07-30T00:07:15.805Z,7.43
2018-07-30T00:09:44.065Z,4.63
2018-07-30T00:12:12.345Z,6.70
2018-07-30T00:14:40.642Z,7.53
2018-07-30T00:17:08.977Z,6.77
2018-07-30T00:19:38.241Z,6.67
2018-07-30T00:22:06.556Z,5.70
2018-07-30T00:24:34.837Z,5.63
2018-07-30T00:27:03.109Z,9.90
2018-07-30T00:29:31.414Z,6.40
2018-07-30T00:31:59.696Z,5.77
2018-07-30T00:34:27.993Z,5.20
2018-07-30T00:36:56.284Z,7.73
2018-07-30T00:39:24.686Z,5.40
2018-07-30T00:41:52.995Z,10.80
2018-07-30T00:44:21.321Z,5.33
2018-07-30T00:46:49.585Z,7.97
2018-07-30T00:49:17.873Z,7.47
2018-07-30T00:51:46.160Z,11.17
2018-07-30T00:54:15.540Z,9.13
2018-07-30T00:56:43.849Z,10.70
2018-07-30T00:59:12.152Z,9.70
2018-07-30T01:01:40.405Z,7.63
2018-07-30T01:04:08.722Z,7.63
2018-07-30T01:06:37.016Z,6.50
2018-07-30T01:09:07.705Z,14.80
2018-07-30T01:11:36.029Z,9.00
2018-07-30T01:14:04.301Z,7.10
2018-07-30T01:16:32.637Z,6.73
2018-07-30T01:19:00.903Z,7.53
2018-07-30T01:21:29.231Z,6.17
2018-07-30T01:23:57.474Z,11.83
2018-07-30T01:26:27.682Z,6.23
2018-07-30T01:28:56.725Z,6.93
2018-07-30T01:31:25.053Z,12.43
2018-07-30T01:33:53.781Z,9.50
2018-07-30T01:36:22.126Z,6.80
2018-07-30T01:38:51.877Z,9.50
2018-07-30T01:41:20.371Z,9.50
2018-07-30T01:43:50.677Z,6.50
2018-07-30T01:46:19.980Z,6.47
2018-07-30T01:48:49.262Z,6.67
2018-07-30T01:51:17.560Z,6.73
2018-07-30T01:53:45.831Z,7.60
2018-07-30T01:56:14.138Z,6.80
2018-07-30T01:58:43.392Z,6.63
2018-07-30T02:01:11.685Z,11.23
2018-07-30T02:03:40.006Z,7.33
2018-07-30T02:06:08.304Z,6.93
2018-07-30T02:08:36.603Z,7.23
2018-07-30T02:11:04.867Z,6.60
2018-07-30T02:13:33.172Z,6.87
2018-07-30T02:16:01.441Z,9.90
2018-07-30T02:18:29.749Z,7.33
2018-07-30T02:20:58.018Z,8.70
2018-07-30T02:23:26.320Z,8.03
2018-07-30T02:25:55.666Z,7.53
2018-07-30T02:28:23.997Z,8.20
2018-07-30T02:30:52.254Z,7.70
2018-07-30T02:33:20.715Z,7.17
2018-07-30T02:35:49.041Z,7.00
2018-07-30T02:38:18.412Z,7.80
2018-07-30T02:40:46.720Z,9.23
2018-07-30T02:43:14.973Z,8.67
2018-07-30T02:45:43.325Z,7.17
2018-07-30T02:48:11.593Z,9.10
2018-07-30T02:50:39.929Z,8.13
2018-07-30T02:53:08.203Z,9.93
2018-07-30T02:55:36.525Z,7.90
2018-07-30T02:58:05.922Z,7.33
2018-07-30T03:00:34.261Z,9.43
2018-07-30T03:03:03.609Z,12.73
2018-07-30T03:05:31.901Z,8.20
2018-07-30T03:08:00.193Z,7.50
2018-07-30T03:10:28.468Z,11.33
2018-07-30T03:12:56.753Z,10.20
2018-07-30T03:15:25.025Z,6.97
2018-07-30T03:17:53.293Z,8.23
2018-07-30T03:20:21.565Z,9.33
2018-07-30T03:22:49.846Z,7.93
2018-07-30T03:25:19.185Z,10.73
2018-07-30T03:27:47.473Z,11.23
2018-07-30T03:30:15.775Z,8.37
2018-07-30T03:32:44.055Z,11.57
2018-07-30T03:35:12.316Z,9.20
2018-07-30T03:37:40.630Z,11.50
2018-07-30T03:40:08.924Z,7.27
2018-07-30T03:42:37.378Z,10.07
2018-07-30T03:45:08.076Z,10.60
2018-07-30T03:47:36.349Z,9.13
2018-07-30T03:50:06.402Z,8.33
2018-07-30T03:52:35.752Z,8.03
2018-07-30T03:55:04.110Z,7.57
2018-07-30T03:57:32.384Z,8.80
2018-07-30T04:00:00.686Z,10.13
2018-07-30T04:02:28.966Z,7.83
2018-07-30T04:04:59.255Z,8.60
2018-07-30T04:07:28.576Z,8.83
2018-07-30T04:09:56.845Z,9.07
2018-07-30T04:12:26.137Z,9.90
2018-07-30T04:14:55.460Z,8.03
2018-07-30T04:17:23.688Z,7.80
2018-07-30T04:19:51.969Z,9.40
2018-07-30T04:22:20.259Z,10.80
2018-07-30T04:24:48.545Z,9.43
2018-07-30T04:27:16.814Z,13.20
2018-07-30T04:29:45.101Z,8.00
2018-07-30T04:32:14.453Z,9.70
2018-07-30T04:34:42.733Z,7.97
2018-07-30T04:37:11.049Z,9.10
2018-07-30T04:39:39.337Z,8.80
2018-07-30T04:42:07.634Z,8.20
2018-07-30T04:44:35.948Z,12.73
2018-07-30T04:47:04.281Z,7.10
2018-07-30T04:49:33.581Z,10.93
2018-07-30T04:52:02.872Z,8.43
2018-07-30T04:54:31.246Z,9.30
2018-07-30T04:57:01.639Z,12.33
2018-07-30T04:59:30.877Z,8.30
2018-07-30T05:01:59.145Z,8.07
2018-07-30T05:04:27.413Z,9.73
2018-07-30T05:06:55.705Z,13.37
2018-07-30T05:09:23.959Z,8.57
2018-07-30T05:11:52.266Z,10.47
2018-07-30T05:14:20.516Z,10.50
2018-07-30T05:16:48.804Z,10.33
2018-07-30T05:19:18.111Z,8.63
2018-07-30T05:21:46.373Z,9.17
2018-07-30T05:24:14.649Z,9.20
2018-07-30T05:26:42.963Z,9.00
2018-07-30T05:29:12.228Z,14.60
2018-07-30T05:31:41.594Z,10.40
2018-07-30T05:34:09.965Z,8.37
2018-07-30T05:36:38.274Z,13.20
2018-07-30T05:39:09.286Z,8.67
2018-07-30T05:41:39.577Z,10.23
2018-07-30T05:44:07.933Z,8.07
2018-07-30T05:46:36.210Z,9.27
2018-07-30T05:49:04.732Z,10.33
2018-07-30T05:51:34.081Z,8.13
2018-07-30T05:54:02.633Z,9.20
2018-07-30T05:56:30.957Z,9.47
2018-07-30T05:58:59.267Z,9.27
2018-07-30T06:01:27.562Z,9.43
2018-07-30T06:03:56.121Z,9.30
2018-07-30T06:06:24.425Z,8.83
2018-07-30T06:08:53.121Z,8.87
2018-07-30T06:11:22.417Z,9.07
2018-07-30T06:13:50.749Z,11.80
2018-07-30T06:16:19.025Z,9.67
2018-07-30T06:18:47.310Z,11.30
2018-07-30T06:21:15.633Z,10.07
2018-07-30T06:23:44.972Z,9.90
2018-07-30T06:26:13.253Z,9.53
2018-07-30T06:28:41.603Z,9.77
2018-07-30T06:31:09.882Z,9.97
2018-07-30T06:33:39.187Z,10.77
2018-07-30T06:36:07.548Z,9.63
2018-07-30T06:38:35.843Z,10.20
2018-07-30T06:41:04.193Z,9.40
2018-07-30T06:43:32.495Z,9.70
2018-07-30T06:46:02.761Z,10.00
2018-07-30T06:48:31.096Z,9.93
2018-07-30T06:50:59.373Z,16.43
2018-07-30T06:53:28.742Z,11.30
2018-07-30T06:55:57.037Z,10.20
2018-07-30T06:58:25.341Z,9.43
2018-07-30T07:00:53.610Z,12.03
2018-07-30T07:03:21.929Z,11.10
2018-07-30T07:05:51.265Z,8.70
2018-07-30T07:08:19.584Z,9.23
2018-07-30T07:10:49.038Z,9.37
2018-07-30T07:13:17.366Z,11.17
2018-07-30T07:15:46.669Z,10.63
2018-07-30T07:18:19.128Z,9.53
2018-07-30T07:20:47.523Z,11.30
2018-07-30T07:23:15.779Z,10.20
2018-07-30T07:25:44.057Z,10.43
2018-07-30T07:28:12.826Z,12.50
2018-07-30T07:30:41.122Z,14.63
2018-07-30T07:33:10.419Z,9.97
2018-07-30T07:35:39.690Z,10.17
2018-07-30T07:38:08.234Z,10.93
2018-07-30T07:40:38.531Z,10.23
2018-07-30T07:43:06.811Z,9.80
2018-07-30T07:45:36.229Z,11.57
2018-07-30T07:48:04.571Z,10.67
2018-07-30T07:50:32.992Z,14.17
2018-07-30T07:53:01.161Z,10.73
2018-07-30T07:55:29.533Z,10.13
2018-07-30T07:57:57.817Z,9.60
2018-07-30T08:00:26.099Z,10.40
2018-07-30T08:02:54.357Z,11.30
2018-07-30T08:05:22.753Z,9.00
2018-07-30T08:07:51.049Z,12.10
2018-07-30T08:10:19.316Z,8.53
2018-07-30T08:12:47.584Z,9.07
2018-07-30T08:15:15.860Z,10.30
2018-07-30T08:17:44.156Z,8.80
2018-07-30T08:20:12.433Z,10.73
2018-07-30T08:22:40.741Z,10.07
2018-07-30T08:25:11.170Z,12.87
2018-07-30T08:27:40.706Z,8.37
2018-07-30T08:30:09.238Z,9.30
2018-07-30T08:32:37.986Z,12.00
2018-07-30T08:35:07.490Z,8.23
2018-07-30T08:37:35.874Z,9.37
2018-07-30T08:40:04.905Z,8.90
2018-07-30T08:42:33.246Z,14.00
2018-07-30T08:45:06.989Z,11.17
2018-07-30T08:47:35.338Z,8.60
2018-07-30T08:50:05.645Z,9.10
2018-07-30T08:52:34.229Z,8.40
2018-07-30T08:55:02.576Z,9.33
2018-07-30T08:57:31.998Z,10.83
2018-07-30T09:00:00.282Z,11.10
2018-07-30T09:02:28.613Z,10.37
2018-07-30T09:04:56.869Z,9.70
2018-07-30T09:07:26.155Z,12.50
2018-07-30T09:09:54.585Z,8.90
2018-07-30T09:12:23.014Z,9.80
2018-07-30T09:14:51.288Z,8.50
2018-07-30T09:17:19.659Z,9.40
2018-07-30T09:19:47.946Z,9.07
2018-07-30T09:22:16.254Z,8.93
2018-07-30T09:24:45.582Z,8.33
2018-07-30T09:27:13.865Z,9.77
2018-07-30T09:29:42.161Z,11.70
2018-07-30T09:32:10.418Z,11.10
2018-07-30T09:34:38.757Z,11.50
2018-07-30T09:37:07.064Z,11.57
2018-07-30T09:39:35.443Z,15.13
2018-07-30T09:42:03.665Z,8.40
2018-07-30T09:44:31.969Z,9.10
2018-07-30T09:47:00.221Z,8.53
2018-07-30T09:49:28.506Z,12.27
2018-07-30T09:51:56.805Z,9.20
2018-07-30T09:54:26.163Z,7.93
2018-07-30T09:56:54.442Z,11.83
2018-07-30T09:59:22.714Z,12.60
2018-07-30T10:01:51.022Z,8.53
2018-07-30T10:04:19.282Z,10.40
2018-07-30T10:06:48.603Z,9.30
2018-07-30T10:09:16.892Z,14.70
2018-07-30T10:11:45.252Z,10.80
2018-07-30T10:14:13.494Z,8.97
2018-07-30T10:16:42.645Z,8.23
2018-07-30T10:19:10.935Z,8.73
2018-07-30T10:21:39.336Z,10.13
2018-07-30T10:24:07.654Z,9.43
2018-07-30T10:26:36.967Z,14.30
2018-07-30T10:29:05.225Z,7.50
2018-07-30T10:31:33.524Z,7.83
2018-07-30T10:34:01.818Z,8.63
2018-07-30T10:36:30.197Z,9.83
2018-07-30T10:38:58.469Z,7.60
2018-07-30T10:41:26.799Z,7.80
2018-07-30T10:43:55.141Z,9.50
2018-07-30T10:46:23.443Z,8.10
2018-07-30T10:48:53.782Z,7.50
2018-07-30T10:51:22.149Z,7.43
2018-07-30T10:53:50.439Z,6.90
2018-07-30T10:56:18.724Z,7.70
2018-07-30T10:58:47.145Z,7.47
2018-07-30T11:01:18.966Z,7.73
2018-07-30T11:03:47.273Z,10.90
2018-07-30T11:06:15.545Z,8.30
2018-07-30T11:08:45.781Z,9.93
2018-07-30T11:11:14.099Z,9.57
2018-07-30T11:13:42.401Z,10.00
2018-07-30T11:16:10.681Z,11.10
2018-07-30T11:18:38.997Z,6.03
2018-07-30T11:21:07.396Z,8.50
2018-07-30T11:23:35.706Z,5.27
2018-07-30T11:26:03.948Z,7.83
2018-07-30T11:28:32.265Z,6.33
2018-07-30T11:31:00.542Z,7.60
2018-07-30T11:33:29.945Z,11.37
2018-07-30T11:35:58.216Z,7.80
2018-07-30T11:38:27.665Z,7.30
2018-07-30T11:40:57.014Z,6.23
2018-07-30T11:43:26.295Z,5.90
2018-07-30T11:45:54.594Z,9.63
2018-07-30T11:48:23.997Z,4.55
2018-07-30T11:50:53.290Z,7.70
2018-07-30T11:53:21.617Z,10.80
2018-07-30T11:55:49.906Z,6.97
2018-07-30T11:58:18.207Z,5.33
2018-07-30T12:00:46.488Z,6.03
2018-07-30T12:03:14.793Z,5.60
2018-07-30T12:05:43.070Z,7.93
2018-07-30T12:08:11.384Z,5.03
2018-07-30T12:10:39.689Z,10.50
2018-07-30T12:13:07.965Z,5.50
2018-07-30T12:15:36.307Z,7.90
2018-07-30T12:18:06.605Z,7.37
2018-07-30T12:20:34.900Z,4.50
2018-07-30T12:23:03.151Z,4.67
2018-07-30T12:25:31.479Z,6.07
2018-07-30T12:28:00.770Z,6.10
2018-07-30T12:30:29.167Z,7.43
2018-07-30T12:32:57.411Z,7.27
2018-07-30T12:35:25.701Z,7.23
2018-07-30T12:37:54.021Z,4.00
2018-07-30T12:40:22.336Z,4.10
2018-07-30T12:42:50.614Z,4.90
2018-07-30T12:45:24.201Z,8.83
2018-07-30T12:47:53.541Z,7.10
2018-07-30T12:50:21.856Z,5.40
2018-07-30T12:52:50.123Z,9.30
2018-07-30T12:55:20.428Z,7.50
2018-07-30T12:57:48.732Z,4.10
2018-07-30T13:00:17.045Z,4.60
2018-07-30T13:02:45.335Z,5.70
2018-07-30T13:05:13.617Z,6.50
2018-07-30T13:07:41.918Z,5.13
2018-07-30T13:10:11.205Z,4.90
2018-07-30T13:12:39.570Z,6.20
2018-07-30T13:15:08.096Z,7.50
2018-07-30T13:17:37.441Z,5.37
2018-07-30T13:20:07.808Z,5.30
2018-07-30T13:22:36.135Z,5.67
2018-07-30T13:25:04.853Z,4.93
2018-07-30T13:27:34.194Z,13.20
2018-07-30T13:30:02.469Z,8.37
2018-07-30T13:32:30.813Z,5.63
2018-07-30T13:34:59.052Z,5.77
2018-07-30T13:37:27.353Z,8.57
2018-07-30T13:39:55.634Z,7.23
2018-07-30T13:42:23.925Z,8.10
2018-07-30T13:44:52.245Z,5.80
2018-07-30T13:47:22.473Z,7.17
2018-07-30T13:49:50.790Z,5.67
2018-07-30T13:52:19.060Z,5.80
2018-07-30T13:54:47.397Z,5.10
2018-07-30T13:57:15.662Z,7.13
2018-07-30T13:59:43.975Z,8.27
2018-07-30T14:02:12.579Z,6.20
2018-07-30T14:04:40.853Z,5.20
2018-07-30T14:07:09.172Z,4.60
2018-07-30T14:09:39.524Z,8.63
2018-07-30T14:12:07.862Z,9.57
2018-07-30T14:14:36.194Z,6.17
2018-07-30T14:17:07.919Z,6.20
2018-07-30T14:19:36.187Z,5.30
2018-07-30T14:22:05.558Z,4.40
2018-07-30T14:24:33.908Z,5.93
2018-07-30T14:27:02.247Z,6.57
2018-07-30T14:29:31.548Z,6.87
2018-07-30T14:32:01.934Z,5.50
2018-07-30T14:34:31.247Z,6.73
2018-07-30T14:36:59.629Z,7.40
2018-07-30T14:39:27.915Z,6.93
2018-07-30T14:41:56.208Z,6.30
2018-07-30T14:44:24.485Z,5.20
2018-07-30T14:46:52.761Z,6.00
2018-07-30T14:49:23.313Z,5.57
2018-07-30T14:51:51.646Z,8.37
2018-07-30T14:54:19.947Z,7.63
2018-07-30T14:56:48.206Z,5.50
2018-07-30T14:59:16.560Z,6.23
2018-07-30T15:01:45.855Z,8.73
2018-07-30T15:04:14.140Z,7.33
2018-07-30T15:06:42.457Z,6.13
2018-07-30T15:09:16.085Z,5.60
2018-07-30T15:11:44.365Z,7.70
2018-07-30T15:14:12.696Z,9.67
2018-07-30T15:16:40.955Z,7.60
2018-07-30T15:19:09.335Z,10.20
2018-07-30T15:21:37.605Z,6.73
2018-07-30T15:24:05.963Z,10.40
2018-07-30T15:26:34.267Z,10.10
2018-07-30T15:29:02.664Z,7.70
2018-07-30T15:31:35.055Z,9.73
2018-07-30T15:34:07.281Z,7.00
2018-07-30T15:36:35.567Z,8.23
2018-07-30T15:39:11.348Z,7.73
2018-07-30T15:41:39.691Z,7.80
2018-07-30T15:44:07.966Z,9.20
2018-07-30T15:46:36.640Z,8.37
2018-07-30T15:49:04.903Z,7.20
2018-07-30T15:51:33.197Z,9.33
2018-07-30T15:54:01.579Z,9.23
2018-07-30T15:56:30.242Z,8.47
2018-07-30T15:58:58.742Z,7.90
2018-07-30T16:01:27.150Z,10.37
2018-07-30T16:03:55.537Z,10.80
2018-07-30T16:06:23.870Z,13.37
2018-07-30T16:08:52.156Z,8.80
2018-07-30T16:11:20.448Z,8.03
2018-07-30T16:13:48.724Z,8.63
2018-07-30T16:16:17.026Z,7.93
2018-07-30T16:18:45.296Z,19.03
2018-07-30T16:21:13.609Z,8.87
2018-07-30T16:23:41.909Z,9.20
2018-07-30T16:26:10.229Z,8.77
2018-07-30T16:28:38.494Z,9.33
2018-07-30T16:31:06.808Z,14.07
2018-07-30T16:33:36.199Z,10.77
2018-07-30T16:36:04.574Z,11.40
2018-07-30T16:38:33.944Z,10.73
2018-07-30T16:41:02.229Z,10.60
2018-07-30T16:43:30.649Z,10.87
2018-07-30T16:45:58.933Z,8.63
2018-07-30T16:48:27.205Z,9.47
2018-07-30T16:50:55.585Z,7.40
2018-07-30T16:53:23.913Z,11.50
2018-07-30T16:55:52.298Z,8.30
2018-07-30T16:58:20.600Z,8.77
2018-07-30T17:00:49.975Z,10.40
2018-07-30T17:03:18.301Z,9.23
2018-07-30T17:05:46.617Z,10.83
2018-07-30T17:08:15.009Z,8.87
2018-07-30T17:10:43.293Z,8.63
2018-07-30T17:13:11.621Z,12.20
2018-07-30T17:15:39.945Z,9.43
2018-07-30T17:18:08.211Z,14.90
2018-07-30T17:20:37.514Z,17.73
2018-07-30T17:23:06.006Z,12.20
2018-07-30T17:25:34.304Z,7.97
2018-07-30T17:28:02.613Z,9.60
2018-07-30T17:30:31.897Z,13.23
2018-07-30T17:33:00.213Z,10.10
2018-07-30T17:35:28.496Z,11.53
2018-07-30T17:37:56.824Z,8.70
2018-07-30T17:40:26.137Z,8.37
2018-07-30T17:42:54.421Z,8.90
2018-07-30T17:45:22.689Z,11.57
2018-07-30T17:47:50.981Z,9.43
2018-07-30T17:50:19.274Z,8.13
2018-07-30T17:52:49.577Z,8.87
2018-07-30T17:55:17.947Z,8.37
2018-07-30T17:57:48.268Z,8.77
2018-07-30T18:00:16.564Z,8.17
2018-07-30T18:02:44.822Z,11.30
2018-07-30T18:05:18.050Z,11.77
2018-07-30T18:07:47.676Z,8.57
2018-07-30T18:10:15.959Z,8.33
2018-07-30T18:12:44.390Z,8.67
2018-07-30T18:15:12.685Z,8.27
2018-07-30T18:17:40.953Z,8.90
2018-07-30T18:20:09.341Z,11.33
2018-07-30T18:22:37.637Z,10.87
2018-07-30T18:25:05.914Z,8.73
2018-07-30T18:27:34.248Z,9.33
2018-07-30T18:30:03.626Z,20.83
2018-07-30T18:32:31.896Z,10.87
2018-07-30T18:35:00.270Z,9.97
2018-07-30T18:37:30.713Z,11.13
2018-07-30T18:40:02.968Z,11.50
2018-07-30T18:42:31.241Z,9.90
2018-07-30T18:44:59.604Z,10.13
2018-07-30T18:47:28.000Z,10.70
2018-07-30T18:49:58.368Z,11.90
2018-07-30T18:52:26.700Z,17.43
2018-07-30T18:54:54.991Z,14.53
2018-07-30T18:57:23.297Z,11.73
2018-07-30T18:59:51.553Z,10.53
2018-07-30T19:02:19.927Z,10.50
2018-07-30T19:04:49.404Z,12.43
2018-07-30T19:07:17.616Z,13.00
2018-07-30T19:09:47.985Z,11.17
2018-07-30T19:12:19.770Z,13.07
2018-07-30T19:14:48.067Z,12.47
2018-07-30T19:17:16.340Z,13.13
2018-07-30T19:19:44.621Z,11.33
2018-07-30T19:22:12.893Z,13.43
2018-07-30T19:24:41.158Z,14.67
2018-07-30T19:27:09.428Z,12.53
2018-07-30T19:29:37.824Z,13.10
2018-07-30T19:32:06.124Z,12.20
2018-07-30T19:34:35.616Z,17.07
2018-07-30T19:37:03.983Z,12.47
2018-07-30T19:39:32.472Z,18.30
2018-07-30T19:42:02.869Z,14.27
2018-07-30T19:44:33.233Z,14.47
2018-07-30T19:47:02.509Z,13.40
2018-07-30T19:49:30.816Z,13.03
2018-07-30T19:51:59.115Z,14.77
2018-07-30T19:54:28.477Z,16.43
2018-07-30T19:56:56.754Z,16.47
2018-07-30T19:59:26.068Z,14.60
2018-07-30T20:01:54.328Z,13.10
2018-07-30T20:04:22.809Z,14.50
2018-07-30T20:06:51.231Z,14.73
2018-07-30T20:09:19.486Z,15.40
2018-07-30T20:11:48.429Z,15.80
2018-07-30T20:14:18.773Z,16.80
2018-07-30T20:16:47.033Z,13.17
2018-07-30T20:19:15.536Z,16.90
2018-07-30T20:21:43.821Z,14.43
2018-07-30T20:24:12.137Z,18.40
2018-07-30T20:26:40.432Z,15.57
2018-07-30T20:29:08.729Z,17.57
2018-07-30T20:31:38.053Z,14.93
2018-07-30T20:34:06.693Z,16.30
2018-07-30T20:36:34.976Z,16.97
2018-07-30T20:39:03.395Z,15.10
2018-07-30T20:41:31.692Z,15.33
2018-07-30T20:43:59.975Z,16.80
2018-07-30T20:46:28.400Z,18.23
2018-07-30T20:48:56.746Z,16.00
2018-07-30T20:51:25.077Z,27.00
2018-07-30T20:53:53.369Z,22.33
2018-07-30T20:56:21.668Z,16.87
2018-07-30T20:58:49.922Z,15.23
2018-07-30T21:01:18.242Z,16.80
2018-07-30T21:03:46.513Z,15.37
2018-07-30T21:06:14.817Z,17.93
2018-07-30T21:08:43.177Z,16.87
2018-07-30T21:11:11.469Z,15.80
2018-07-30T21:13:39.774Z,18.53
2018-07-30T21:16:08.063Z,16.80
2018-07-30T21:18:36.632Z,17.27
2018-07-30T21:21:04.982Z,19.03
2018-07-30T21:23:33.407Z,17.20
2018-07-30T21:26:01.661Z,18.07
2018-07-30T21:28:29.928Z,17.03
2018-07-30T21:30:58.294Z,16.37
2018-07-30T21:33:26.576Z,16.57
2018-07-30T21:35:55.853Z,16.60
2018-07-30T21:38:25.196Z,16.97
2018-07-30T21:40:53.536Z,19.07
2018-07-30T21:43:21.832Z,18.33
2018-07-30T21:45:50.122Z,17.40
2018-07-30T21:48:19.433Z,17.90
2018-07-30T21:50:47.700Z,15.70
2018-07-30T21:53:16.009Z,16.63
2018-07-30T21:55:44.280Z,17.03
2018-07-30T21:58:12.579Z,14.97
2018-07-30T22:00:45.001Z,16.87
2018-07-30T22:03:13.546Z,16.93
2018-07-30T22:05:41.822Z,15.10
2018-07-30T22:08:10.073Z,17.60
2018-07-30T22:10:38.377Z,15.27
2018-07-30T22:13:07.637Z,16.10
2018-07-30T22:15:35.905Z,15.60
2018-07-30T22:18:04.209Z,17.37
2018-07-30T22:20:32.551Z,19.00
2018-07-30T22:23:00.849Z,16.97
2018-07-30T22:25:29.165Z,15.60
2018-07-30T22:27:57.461Z,17.27
2018-07-30T22:30:25.769Z,16.10
2018-07-30T22:32:54.049Z,14.70
2018-07-30T22:35:22.344Z,14.90
2018-07-30T22:37:51.697Z,14.37
2018-07-30T22:40:20.007Z,14.47
2018-07-30T22:42:48.296Z,12.50
2018-07-30T22:45:16.590Z,12.70
2018-07-30T22:47:44.953Z,12.90
2018-07-30T22:50:13.269Z,11.80
2018-07-30T22:52:41.568Z,12.70
2018-07-30T22:55:09.846Z,11.10
2018-07-30T22:57:38.100Z,11.37
2018-07-30T23:00:06.842Z,10.20
2018-07-30T23:02:35.160Z,11.43
2018-07-30T23:05:03.621Z,10.10
2018-07-30T23:07:32.129Z,10.40
2018-07-30T23:10:00.606Z,10.83
2018-07-30T23:12:28.927Z,10.13
2018-07-30T23:14:58.271Z,9.77
2018-07-30T23:17:27.581Z,9.50
2018-07-30T23:19:55.846Z,10.07
2018-07-30T23:22:24.306Z,10.60
2018-07-30T23:24:52.569Z,9.43
2018-07-30T23:27:20.850Z,10.20
2018-07-30T23:29:53.366Z,9.93
2018-07-30T23:32:23.797Z,12.97
2018-07-30T23:34:52.073Z,10.00
2018-07-30T23:37:20.479Z,9.47
2018-07-30T23:39:48.655Z,14.00
2018-07-30T23:42:18.005Z,9.73
2018-07-30T23:44:46.614Z,9.50
2018-07-30T23:47:14.920Z,9.73
2018-07-30T23:49:43.181Z,11.53
2018-07-30T23:52:11.461Z,9.43
2018-07-30T23:54:39.725Z,8.67
2018-07-30T23:57:08.096Z,10.10
2018-07-30T23:59:36.341Z,8.60
